NFTL/HPA METAR and TAF weather

Enter ICAO airport designator
Station Type Date Time Source
NFTL METAR 2020/09/18 06:00 UTC NOAA

NFTL 180600Z 09012KT 9999 TS SCT006 BKN016TCU OVC100 23/23 Q1015


Station Type Date Time Source
NFTL Decoded METAR 2020/09/18 06:00 UTC NOAA

Haapai, Tonga (NFTL) 19-48S 174-21W 3M
Sep 18, 2020 - 02:00 AM EDT / 2020.09.18 0600 UTC
Wind: from the E (090 degrees) at 14 MPH (12 KT):0
Visibility: greater than 7 mile(s):0
Sky conditions: overcast
Weather: thunder; Towering cumulus clouds observed
Temperature: 73 F (23 C)
Dew Point: 73 F (23 C)
Relative Humidity: 100%
Pressure (altimeter): 29.97 in. Hg (1015 hPa)
ob: NFTL 180600Z 09012KT 9999 TS SCT006 BKN016TCU OVC100 23/23 Q1015
cycle: 6

Station Type Date Time Source
NFTL TAF 2018/02/21 17:19 UTC NOAA

TAF NFTL 211605Z 2117/2208 12010KT 9999 SCT018

Example: see airport list